Terminal Aerodrome Forecast
Issued by NWS

Current Version | Previous Version | Text Only | Print | Product List | Glossary On
Versions: 1 2 3 4 5 6 7 8 9 10 11 12
000
FTUS42 KTBW 211700
TAFPIE
TAF
KPIE 211737Z 2118/2218 06009G18KT P6SM SCT100
     FM220200 07012KT P6SM SCT030 BKN050
     FM221600 09010G19KT P6SM BKN025 OVC050=

USA.gov is the U.S. government's official web portal to all federal, state and local government web resources and services.